Time;durP1;ratioP1;P1;durP2;ratioP2;P2;SDS_P1;SDS_P2;PMS_P1;PMS_P2;Temp;Humidity;BMP_temperature;BMP_pressure;BME280_temperature;BME280_humidity;BME280_pressure;Samples;Min_cycle;Max_cycle;Signal;HPM_P1;HPM_P2
2023/04/28 00:02:21;;;;;;;;;;;;;;;30.98;64.37;100909.91;5094335;27;67002;-42
2023/04/28 00:04:51;;;;;;;;;;;;;;;31.03;64.59;100914.63;5129938;27;69534;-41
2023/04/28 00:07:22;;;;;;;;;;;;;;;31.07;61.15;100914.00;5118470;27;65143;-41
2023/04/28 00:09:52;;;;;;;;;;;;;;;31.12;64.75;100916.88;5110796;27;70306;-40
2023/04/28 00:12:23;;;;;;;;;;;;;;;31.16;62.73;100919.97;5085070;27;66673;-42
2023/04/28 00:14:53;;;;;;;;;;;;;;;31.20;62.15;100928.47;5084036;27;70071;-41
2023/04/28 00:17:23;;;;;;;;;;;;;;;31.23;63.13;100925.31;5121068;27;66131;-43
2023/04/28 00:19:54;;;;;;;;;;;;;;;31.28;64.09;100925.47;5116422;27;70189;-41
2023/04/28 00:22:24;;;;;;;;;;;;;;;31.28;64.28;100930.91;5121089;27;65814;-42
2023/04/28 00:24:54;;;;;;;;;;;;;;;31.32;62.44;100926.72;5119514;27;69212;-41
2023/04/28 00:27:25;;;;;;;;;;;;;;;31.35;64.09;100926.25;5103565;27;66249;-39
2023/04/28 00:29:55;;;;;;;;;;;;;;;31.37;64.80;100929.59;5101886;27;70513;-41
2023/04/28 00:32:25;;;;;;;;;;;;;;;31.38;62.12;100936.69;5119064;27;66387;-41
2023/04/28 00:34:56;;;;;;;;;;;;;;;31.40;62.61;100942.72;5101074;27;70469;-40
2023/04/28 00:37:30;;;;;;;;;;;;;;;31.42;62.70;100937.88;5084836;27;65318;-41
2023/04/28 00:40:01;;;;;;;;;;;;;;;31.41;60.78;100944.38;5098583;27;69720;-41
2023/04/28 00:42:31;;;;;;;;;;;;;;;31.43;60.54;100944.97;5119455;27;66500;-42
2023/04/28 00:45:04;;;;;;;;;;;;;;;31.44;60.10;100952.06;5083976;27;68966;-43
2023/04/28 00:47:36;;;;;;;;;;;;;;;31.45;59.99;100961.00;5077212;27;65970;-43
2023/04/28 00:50:07;;;;;;;;;;;;;;;31.48;59.05;100974.13;5101661;27;70099;-42
2023/04/28 00:52:38;;;;;;;;;;;;;;;31.50;58.74;100974.72;5083657;27;65644;-42
2023/04/28 00:55:09;;;;;;;;;;;;;;;31.51;58.68;100982.66;5095968;27;70538;-44
2023/04/28 00:57:40;;;;;;;;;;;;;;;31.53;58.53;100983.25;5097860;27;67145;-43
2023/04/28 01:00:14;;;;;;;;;;;;;;;31.55;58.89;100989.28;5091969;27;63161;-42
2023/04/28 01:02:44;;;;;;;;;;;;;;;31.56;58.37;100992.81;5072220;28;65164;-42
2023/04/28 01:05:16;;;;;;;;;;;;;;;31.58;58.74;101002.38;5099682;27;70897;-43
2023/04/28 01:07:47;;;;;;;;;;;;;;;31.59;58.60;100995.06;5075237;27;67709;-42
2023/04/28 01:10:17;;;;;;;;;;;;;;;31.61;58.81;101001.94;5099457;27;69529;-41
2023/04/28 01:12:47;;;;;;;;;;;;;;;31.63;58.53;100998.19;5084281;27;66249;-43
2023/04/28 01:15:19;;;;;;;;;;;;;;;31.64;58.63;100999.84;5087530;27;69331;-42
2023/04/28 01:17:53;;;;;;;;;;;;;;;31.66;58.28;101003.19;5083255;27;65615;-43
2023/04/28 01:20:23;;;;;;;;;;;;;;;31.67;57.75;101002.94;5070417;27;70243;-42
2023/04/28 01:22:53;;;;;;;;;;;;;;;31.70;57.72;101007.09;5115702;27;65967;-47
2023/04/28 01:25:24;;;;;;;;;;;;;;;31.72;57.52;101002.28;5097582;27;69701;-42
2023/04/28 01:27:55;;;;;;;;;;;;;;;31.74;57.95;101005.59;5088618;27;67888;-41
2023/04/28 01:30:25;;;;;;;;;;;;;;;31.76;57.82;101003.47;5099156;27;70225;-42
2023/04/28 01:32:55;;;;;;;;;;;;;;;31.78;57.22;101006.81;5088302;27;65282;-42
2023/04/28 01:35:27;;;;;;;;;;;;;;;31.80;57.27;101010.13;5100209;27;69317;-41
2023/04/28 01:37:57;;;;;;;;;;;;;;;31.81;57.40;101009.88;5100211;27;65471;-42
2023/04/28 01:40:28;;;;;;;;;;;;;;;31.84;57.12;101011.31;5095107;27;70590;-41
2023/04/28 01:42:58;;;;;;;;;;;;;;;31.87;57.30;101015.47;5100409;27;66636;-41
2023/04/28 01:45:30;;;;;;;;;;;;;;;31.88;56.91;101017.16;5103740;27;70233;-41
2023/04/28 01:48:01;;;;;;;;;;;;;;;31.90;56.99;101010.44;5102381;27;66185;-42
2023/04/28 01:50:31;;;;;;;;;;;;;;;31.93;57.20;101009.19;5095418;27;70317;-41
2023/04/28 01:53:04;;;;;;;;;;;;;;;31.95;56.71;101009.78;5085942;27;64874;-42
2023/04/28 01:55:34;;;;;;;;;;;;;;;31.96;56.95;101003.34;5102260;27;68937;-43
2023/04/28 01:58:06;;;;;;;;;;;;;;;31.99;56.89;101003.69;5101199;27;66631;-42
2023/04/28 02:00:36;;;;;;;;;;;;;;;32.01;56.89;101001.59;5102339;27;70543;-41
2023/04/28 02:03:07;;;;;;;;;;;;;;;32.04;56.59;101000.31;5115815;27;66357;-43
2023/04/28 02:05:38;;;;;;;;;;;;;;;32.07;56.62;100999.00;5098280;27;69816;-42
2023/04/28 02:08:08;;;;;;;;;;;;;;;32.09;56.68;100997.75;5085189;27;66508;-42
2023/04/28 02:10:38;;;;;;;;;;;;;;;32.12;56.46;100991.03;5102954;27;70266;-41
2023/04/28 02:13:08;;;;;;;;;;;;;;;32.15;56.30;100996.00;5100298;27;65890;-43
2023/04/28 02:15:42;;;;;;;;;;;;;;;32.16;56.04;100982.22;5102229;27;70372;-41
2023/04/28 02:18:13;;;;;;;;;;;;;;;32.19;56.09;100983.66;5102092;27;67115;-42
2023/04/28 02:20:43;;;;;;;;;;;;;;;32.20;56.19;100972.56;5099400;27;70694;-41
2023/04/28 02:23:13;;;;;;;;;;;;;;;32.24;56.08;100984.63;5100439;27;65905;-43
2023/04/28 02:25:43;;;;;;;;;;;;;;;32.27;56.02;100984.16;5084235;27;70382;-41
2023/04/28 02:28:14;;;;;;;;;;;;;;;32.28;55.95;100980.38;5099966;27;66565;-42
2023/04/28 02:30:44;;;;;;;;;;;;;;;32.32;55.80;100978.06;5102798;27;70576;-42
2023/04/28 02:33:14;;;;;;;;;;;;;;;32.35;55.74;100974.06;5101833;27;66617;-42
2023/04/28 02:35:45;;;;;;;;;;;;;;;32.37;55.60;100978.19;5100525;27;70420;-41
2023/04/28 02:38:15;;;;;;;;;;;;;;;32.40;55.52;100977.75;5101101;27;67852;-41
2023/04/28 02:40:46;;;;;;;;;;;;;;;32.42;55.41;100970.19;5103061;27;70396;-43
2023/04/28 02:43:16;;;;;;;;;;;;;;;32.45;55.34;100964.31;5102388;27;65558;-42
2023/04/28 02:45:46;;;;;;;;;;;;;;;32.49;55.26;100959.28;5102847;27;70434;-41
2023/04/28 02:48:16;;;;;;;;;;;;;;;32.51;55.28;100951.72;5101183;27;66635;-42
2023/04/28 02:50:47;;;;;;;;;;;;;;;32.54;55.22;100951.28;5099425;27;69747;-42
2023/04/28 02:53:17;;;;;;;;;;;;;;;32.57;55.18;100939.13;5077866;27;65247;-41
2023/04/28 02:55:48;;;;;;;;;;;;;;;32.59;55.11;100934.28;5097616;27;70414;-42
2023/04/28 02:58:19;;;;;;;;;;;;;;;32.62;55.03;100936.53;5097205;27;66199;-41
2023/04/28 03:00:50;;;;;;;;;;;;;;;32.65;54.92;100936.06;5102146;27;70614;-41
2023/04/28 03:03:20;;;;;;;;;;;;;;;32.67;54.96;100933.97;5113188;27;66087;-42
2023/04/28 03:05:51;;;;;;;;;;;;;;;32.69;54.75;100932.69;5080992;27;70690;-41
2023/04/28 03:08:22;;;;;;;;;;;;;;;32.72;54.44;100923.25;5095208;27;65466;-41
2023/04/28 03:10:54;;;;;;;;;;;;;;;32.75;54.65;100927.38;5102190;27;70307;-42
2023/04/28 03:13:26;;;;;;;;;;;;;;;32.77;54.68;100917.94;5102096;27;66096;-43
2023/04/28 03:15:56;;;;;;;;;;;;;;;32.80;54.60;100922.91;5090375;27;70166;-41
2023/04/28 03:18:28;;;;;;;;;;;;;;;32.83;54.42;100918.91;5087685;27;66672;-42
2023/04/28 03:20:58;;;;;;;;;;;;;;;32.86;54.50;100916.53;5115631;27;70120;-43
2023/04/28 03:23:29;;;;;;;;;;;;;;;32.86;54.04;100905.66;5099358;27;66409;-41
2023/04/28 03:26:00;;;;;;;;;;;;;;;32.90;54.23;100912.31;5101237;27;70667;-41
2023/04/28 03:28:30;;;;;;;;;;;;;;;32.92;54.14;100915.59;5114553;27;66343;-41
2023/04/28 03:31:01;;;;;;;;;;;;;;;32.93;53.93;100909.13;5082019;27;70520;-42
2023/04/28 03:33:32;;;;;;;;;;;;;;;32.99;54.20;100906.50;5100778;27;66793;-41
2023/04/28 03:36:02;;;;;;;;;;;;;;;33.00;54.15;100900.06;5100095;27;69763;-41
2023/04/28 03:38:33;;;;;;;;;;;;;;;33.03;54.02;100908.56;5098009;27;66903;-41
2023/04/28 03:41:03;;;;;;;;;;;;;;;33.06;53.92;100893.69;5117011;27;69666;-42
2023/04/28 03:44:12;;;;;;;;;;;;;;;33.07;53.78;100896.19;5086632;27;65927;-41
2023/04/28 03:46:47;;;;;;;;;;;;;;;33.08;53.85;100891.56;5088453;27;70758;-41
2023/04/28 03:49:19;;;;;;;;;;;;;;;33.13;53.67;100897.13;5092453;27;66679;-41
2023/04/28 03:51:50;;;;;;;;;;;;;;;33.15;53.60;100897.69;5070615;27;70697;-42
2023/04/28 03:54:20;;;;;;;;;;;;;;;33.16;53.72;100893.94;5114932;27;65930;-42
2023/04/28 03:56:51;;;;;;;;;;;;;;;33.19;53.65;100881.75;5096123;27;70397;-42
2023/04/28 03:59:21;;;;;;;;;;;;;;;33.21;53.75;100875.03;5080355;27;66401;-42
2023/04/28 04:01:51;;;;;;;;;;;;;;;33.23;53.73;100881.03;5103196;27;70267;-41
2023/04/28 04:04:22;;;;;;;;;;;;;;;33.24;53.69;100863.69;5096461;27;66481;-42
2023/04/28 04:06:53;;;;;;;;;;;;;;;33.26;53.73;100877.84;5100146;27;69071;-41
2023/04/28 04:09:24;;;;;;;;;;;;;;;33.31;53.29;100869.81;5101134;27;65614;-41
2023/04/28 04:11:54;;;;;;;;;;;;;;;33.34;53.45;100863.88;5098059;27;69220;-42
2023/04/28 04:14:25;;;;;;;;;;;;;;;33.36;53.24;100850.88;5118678;27;66628;-41
2023/04/28 04:16:56;;;;;;;;;;;;;;;33.38;53.30;100848.78;5095565;27;70283;-42
2023/04/28 04:19:26;;;;;;;;;;;;;;;33.39;53.16;100855.03;5098641;27;66468;-41
2023/04/28 04:21:57;;;;;;;;;;;;;;;33.40;53.00;100844.97;5098526;27;70839;-42
2023/04/28 04:24:27;;;;;;;;;;;;;;;33.42;53.10;100854.53;5100165;27;66387;-42
2023/04/28 04:26:58;;;;;;;;;;;;;;;33.44;53.26;100843.44;5098265;27;69154;-42
2023/04/28 04:29:37;;;;;;;;;;;;;;;33.48;53.17;100839.16;5095842;27;66810;-42
2023/04/28 04:32:13;;;;;;;;;;;;;;;33.50;53.02;100828.88;5098150;27;70669;-42
2023/04/28 04:34:44;;;;;;;;;;;;;;;33.52;53.16;100824.03;5097349;27;66835;-42
2023/04/28 04:37:15;;;;;;;;;;;;;;;33.56;52.81;100822.50;5099252;27;71018;-41
2023/04/28 04:39:51;;;;;;;;;;;;;;;33.58;52.84;100815.78;5098422;27;65886;-42
2023/04/28 04:42:22;;;;;;;;;;;;;;;33.60;52.88;100818.25;5091021;27;70123;-41
2023/04/28 04:45:12;;;;;;;;;;;;;;;33.64;52.62;100808.53;5098422;27;66109;-43
2023/04/28 04:47:43;;;;;;;;;;;;;;;33.64;52.70;100797.66;5099436;27;69731;-43
2023/04/28 04:50:13;;;;;;;;;;;;;;;33.67;52.69;100796.34;5100329;27;67439;-43
2023/04/28 04:52:43;;;;;;;;;;;;;;;33.69;52.13;100795.03;5100457;27;69456;-42
2023/04/28 04:55:14;;;;;;;;;;;;;;;33.70;52.38;100793.97;5114005;27;66626;-41
2023/04/28 04:57:45;;;;;;;;;;;;;;;33.73;52.07;100779.88;5118291;27;70013;-49
2023/04/28 05:00:41;;;;;;;;;;;;;;;33.75;52.06;100769.59;5089174;27;66596;-42
2023/04/28 05:03:13;;;;;;;;;;;;;;;33.78;52.09;100763.66;5095428;27;70481;-42
2023/04/28 05:05:44;;;;;;;;;;;;;;;33.82;51.79;100761.28;5100667;27;65171;-44
2023/04/28 05:08:33;;;;;;;;;;;;;;;33.85;51.95;100759.97;5103265;27;70415;-41
2023/04/28 05:11:04;;;;;;;;;;;;;;;33.88;51.68;100759.47;5093576;27;66778;-42
2023/04/28 05:13:34;;;;;;;;;;;;;;;33.91;51.83;100748.13;5115785;27;70719;-42
2023/04/28 05:16:04;;;;;;;;;;;;;;;33.93;51.58;100748.69;5098419;27;66342;-42
2023/04/28 05:18:49;;;;;;;;;;;;;;;33.96;51.40;100745.47;5092894;27;69980;-42
2023/04/28 05:21:21;;;;;;;;;;;;;;;33.98;51.30;100743.34;5096672;27;65457;-41
2023/04/28 05:23:52;;;;;;;;;;;;;;;33.99;51.32;100743.09;5098141;27;69522;-42
2023/04/28 05:26:23;;;;;;;;;;;;;;;34.01;51.15;100732.78;5098299;27;66485;-41
2023/04/28 05:28:57;;;;;;;;;;;;;;;34.04;51.32;100726.03;5099096;27;70358;-41
2023/04/28 05:31:28;;;;;;;;;;;;;;;34.06;51.31;100726.63;5112817;27;66101;-43
2023/04/28 05:33:59;;;;;;;;;;;;;;;34.08;51.15;100702.72;5097192;27;71625;-42
2023/04/28 05:36:30;;;;;;;;;;;;;;;34.11;51.21;100704.97;5095402;27;66411;-42
2023/04/28 05:39:00;;;;;;;;;;;;;;;34.14;51.10;100698.19;5104229;27;70220;-41
2023/04/28 05:41:30;;;;;;;;;;;;;;;34.16;50.95;100691.44;5102554;27;66905;-43
2023/04/28 05:44:00;;;;;;;;;;;;;;;34.18;50.99;100683.81;5090959;27;70547;-42
2023/04/28 05:46:31;;;;;;;;;;;;;;;34.20;50.82;100675.44;5102624;27;67354;-42
2023/04/28 05:49:02;;;;;;;;;;;;;;;34.22;50.52;100671.38;5103772;27;69339;-42
2023/04/28 05:51:36;;;;;;;;;;;;;;;34.22;50.77;100673.28;5077608;27;66519;-43
2023/04/28 05:54:07;;;;;;;;;;;;;;;34.28;50.72;100664.13;5077214;27;70426;-42
2023/04/28 05:56:43;;;;;;;;;;;;;;;34.29;50.12;100654.03;5094677;27;67214;-42
2023/04/28 05:59:15;;;;;;;;;;;;;;;34.36;50.34;100657.44;5101695;27;69401;-44
2023/04/28 06:01:46;;;;;;;;;;;;;;;34.39;50.49;100646.03;5104393;27;66564;-41
2023/04/28 06:04:16;;;;;;;;;;;;;;;34.40;50.02;100644.94;5070200;27;69183;-41
2023/04/28 06:06:48;;;;;;;;;;;;;;;34.43;50.36;100636.28;5085814;27;66481;-43
2023/04/28 06:09:19;;;;;;;;;;;;;;;34.45;50.03;100617.81;5104126;27;70405;-43
2023/04/28 06:11:50;;;;;;;;;;;;;;;34.47;49.83;100621.09;5098181;27;66914;-42
2023/04/28 06:14:21;;;;;;;;;;;;;;;34.51;50.35;100611.34;5077019;27;69251;-42
2023/04/28 06:16:51;;;;;;;;;;;;;;;34.53;50.12;100614.66;5101497;27;65570;-41
2023/04/28 06:19:22;;;;;;;;;;;;;;;34.54;49.58;100605.38;5104181;27;70820;-42
2023/04/28 06:21:52;;;;;;;;;;;;;;;34.58;49.85;100594.88;5086384;27;66628;-42
2023/04/28 06:24:23;;;;;;;;;;;;;;;34.60;49.70;100596.25;5114252;27;70755;-42
2023/04/28 06:26:56;;;;;;;;;;;;;;;34.63;49.54;100598.47;5104530;27;66176;-43
2023/04/28 06:29:27;;;;;;;;;;;;;;;34.66;49.66;100592.53;5093966;27;68379;-43
2023/04/28 06:31:57;;;;;;;;;;;;;;;34.67;49.42;100583.25;5116817;27;66930;-42
2023/04/28 06:34:29;;;;;;;;;;;;;;;34.69;49.75;100578.38;5103757;27;69226;-41
2023/04/28 06:37:00;;;;;;;;;;;;;;;34.72;49.44;100579.78;5106787;27;66753;-42
2023/04/28 06:39:31;;;;;;;;;;;;;;;34.75;49.16;100568.38;5103770;27;69999;-42
2023/04/28 06:42:02;;;;;;;;;;;;;;;34.79;49.46;100574.13;5105255;27;65668;-42
2023/04/28 06:44:35;;;;;;;;;;;;;;;34.83;49.29;100562.47;5088915;27;69847;-43
2023/04/28 06:47:06;;;;;;;;;;;;;;;34.86;49.45;100559.25;5123156;27;66205;-42
2023/04/28 06:49:39;;;;;;;;;;;;;;;34.89;49.19;100552.47;5112019;27;70000;-42
2023/04/28 06:52:09;;;;;;;;;;;;;;;34.91;49.37;100553.03;5112581;27;65363;-43
2023/04/28 06:54:39;;;;;;;;;;;;;;;34.94;48.87;100549.78;5102664;27;70194;-42
2023/04/28 06:57:09;;;;;;;;;;;;;;;34.95;49.23;100535.06;5122583;27;65946;-42
2023/04/28 06:59:42;;;;;;;;;;;;;;;34.97;49.40;100532.94;5104454;27;69598;-43
2023/04/28 07:02:13;;;;;;;;;;;;;;;34.99;49.15;100528.03;5124851;27;67007;-40
2023/04/28 07:04:43;;;;;;;;;;;;;;;35.02;49.16;100530.25;5118388;27;69015;-42
2023/04/28 07:07:14;;;;;;;;;;;;;;;35.04;49.16;100522.63;5127154;27;66952;-43
2023/04/28 07:09:44;;;;;;;;;;;;;;;35.08;49.05;100518.34;5115981;27;69943;-42
2023/04/28 07:12:15;;;;;;;;;;;;;;;35.12;49.20;100513.19;5110603;27;66023;-43
2023/04/28 07:14:45;;;;;;;;;;;;;;;35.15;48.93;100509.94;5086172;27;69664;-42
2023/04/28 07:17:19;;;;;;;;;;;;;;;35.21;49.25;100505.38;5110630;27;65740;-43
2023/04/28 07:19:49;;;;;;;;;;;;;;;35.23;49.18;100495.84;5126341;27;70464;-43
2023/04/28 07:22:20;;;;;;;;;;;;;;;35.27;49.19;100496.13;5113401;27;66293;-41
2023/04/28 07:24:50;;;;;;;;;;;;;;;35.30;48.72;100487.44;5127573;27;70596;-43
2023/04/28 07:27:20;;;;;;;;;;;;;;;35.30;49.21;100487.44;5125079;27;67601;-43
2023/04/28 07:29:50;;;;;;;;;;;;;;;35.34;48.66;100488.59;5129351;27;70495;-43
2023/04/28 07:32:21;;;;;;;;;;;;;;;35.38;48.67;100483.41;5126461;27;65760;-43
2023/04/28 07:34:51;;;;;;;;;;;;;;;35.40;49.11;100465.72;5123955;27;70102;-41
2023/04/28 07:37:22;;;;;;;;;;;;;;;35.43;48.74;100464.38;5118298;27;66465;-42
2023/04/28 07:39:52;;;;;;;;;;;;;;;35.46;48.82;100459.22;5123753;27;70099;-44
2023/04/28 07:42:22;;;;;;;;;;;;;;;35.48;48.65;100451.59;5125387;27;66230;-43
2023/04/28 07:44:53;;;;;;;;;;;;;;;35.50;48.92;100443.97;5125049;27;70758;-43
2023/04/28 07:47:23;;;;;;;;;;;;;;;35.52;48.96;100452.72;5129134;27;66307;-43
2023/04/28 07:49:53;;;;;;;;;;;;;;;35.54;48.93;100445.09;5115593;27;70190;-43
2023/04/28 07:52:24;;;;;;;;;;;;;;;35.56;48.73;100445.69;5121795;27;66963;-41
2023/04/28 07:54:54;;;;;;;;;;;;;;;35.60;48.48;100436.97;5101731;27;69832;-42
2023/04/28 07:57:24;;;;;;;;;;;;;;;35.65;48.70;100439.72;5125617;27;65881;-42
2023/04/28 07:59:55;;;;;;;;;;;;;;;35.66;48.31;100435.91;5099887;27;69450;-42
2023/04/28 08:02:26;;;;;;;;;;;;;;;35.68;48.23;100433.75;5129235;27;66656;-42
2023/04/28 08:04:56;;;;;;;;;;;;;;;35.69;48.16;100419.00;5128322;27;69413;-42
2023/04/28 08:07:27;;;;;;;;;;;;;;;35.73;48.81;100431.06;5130420;27;66092;-42
2023/04/28 08:09:58;;;;;;;;;;;;;;;35.74;48.20;100424.50;5113843;27;70576;-42
2023/04/28 08:12:28;;;;;;;;;;;;;;;35.75;48.21;100423.44;5125060;27;66122;-41
2023/04/28 08:14:58;;;;;;;;;;;;;;;35.74;48.65;100417.13;5123607;27;69900;-42
2023/04/28 08:17:29;;;;;;;;;;;;;;;35.79;48.02;100413.63;5125770;27;65561;-42
2023/04/28 08:19:59;;;;;;;;;;;;;;;35.74;48.25;100405.41;5122008;27;70491;-42
2023/04/28 08:22:29;;;;;;;;;;;;;;;35.77;48.71;100411.16;5117960;27;64893;-42
2023/04/28 08:25:00;;;;;;;;;;;;;;;35.78;48.18;100418.25;5120966;27;70278;-42
2023/04/28 08:27:30;;;;;;;;;;;;;;;35.81;48.22;100411.44;5118539;27;65432;-41
2023/04/28 08:30:00;;;;;;;;;;;;;;;35.83;48.74;100409.28;5123530;27;70279;-40
2023/04/28 08:32:31;;;;;;;;;;;;;;;35.85;48.05;100406.28;5121403;27;66437;-43
2023/04/28 08:35:01;;;;;;;;;;;;;;;35.86;48.10;100402.44;5124038;27;70282;-43
2023/04/28 08:37:32;;;;;;;;;;;;;;;35.85;48.18;100393.44;5120153;27;66310;-41
2023/04/28 08:40:08;;;;;;;;;;;;;;;35.84;48.15;100383.63;5122212;27;70583;-42
2023/04/28 08:42:38;;;;;;;;;;;;;;;35.84;48.17;100380.09;5114289;27;66648;-43
2023/04/28 08:45:12;;;;;;;;;;;;;;;35.86;48.15;100375.16;5126390;27;70826;-43
2023/04/28 08:47:46;;;;;;;;;;;;;;;35.88;48.17;100362.88;5124223;27;66817;-42
2023/04/28 08:50:20;;;;;;;;;;;;;;;35.88;48.22;100343.78;5122100;27;70223;-42
2023/04/28 08:52:51;;;;;;;;;;;;;;;35.90;48.33;100343.53;5119126;27;67081;-43
2023/04/28 08:55:22;;;;;;;;;;;;;;;35.91;48.64;100351.47;5117419;27;69262;-43
2023/04/28 08:57:54;;;;;;;;;;;;;;;35.91;48.57;100362.38;5123132;27;65679;-43
2023/04/28 09:00:24;;;;;;;;;;;;;;;35.90;48.66;100366.19;5118745;27;70335;-42
2023/04/28 09:02:54;;;;;;;;;;;;;;;35.92;48.12;100374.09;5122526;27;66485;-43
2023/04/28 09:05:25;;;;;;;;;;;;;;;35.92;48.00;100380.38;5120132;27;70914;-41
2023/04/28 09:07:56;;;;;;;;;;;;;;;35.93;48.46;100378.47;5123384;27;67027;-43
2023/04/28 09:10:26;;;;;;;;;;;;;;;35.90;48.41;100360.72;5115905;27;70497;-41
2023/04/28 09:12:57;;;;;;;;;;;;;;;35.92;48.54;100369.47;5126191;27;66952;-42
2023/04/28 09:15:37;;;;;;;;;;;;;;;35.91;48.58;100370.56;5119335;27;69805;-41
2023/04/28 09:18:07;;;;;;;;;;;;;;;35.91;48.05;100384.22;5122230;27;66962;-42
2023/04/28 09:20:38;;;;;;;;;;;;;;;35.90;48.63;100396.19;5121768;27;70943;-42
2023/04/28 09:23:26;;;;;;;;;;;;;;;35.90;48.08;100400.84;5120432;27;66520;-42
2023/04/28 09:26:00;;;;;;;;;;;;;;;35.88;48.63;100394.81;5122536;27;70350;-43
2023/04/28 09:28:30;;;;;;;;;;;;;;;35.88;48.80;100397.56;5100706;27;67003;-40
2023/04/28 09:31:01;;;;;;;;;;;;;;;35.86;48.76;100392.38;5125895;27;70754;-41
2023/04/28 09:33:31;;;;;;;;;;;;;;;35.88;48.98;100403.00;5120986;27;65610;-41
2023/04/28 09:36:04;;;;;;;;;;;;;;;35.84;48.38;100405.47;5128158;27;69366;-42
2023/04/28 09:38:42;;;;;;;;;;;;;;;35.85;48.39;100406.28;5114260;27;65711;-43
2023/04/28 09:41:13;;;;;;;;;;;;;;;35.82;48.57;100421.28;5126831;27;70459;-42
2023/04/28 09:43:43;;;;;;;;;;;;;;;35.82;49.10;100434.91;5108515;27;68316;-43
2023/04/28 09:46:27;;;;;;;;;;;;;;;35.83;48.56;100450.22;5123479;27;70895;-42
2023/04/28 09:49:01;;;;;;;;;;;;;;;35.82;49.19;100472.31;5127502;27;65434;-43
2023/04/28 09:51:33;;;;;;;;;;;;;;;35.79;48.80;100479.09;5125387;27;69397;-42
2023/04/28 09:54:06;;;;;;;;;;;;;;;35.78;49.32;100491.13;5127141;27;66620;-43
2023/04/28 09:56:37;;;;;;;;;;;;;;;35.75;49.33;100488.91;5118573;27;69500;-42
2023/04/28 09:59:09;;;;;;;;;;;;;;;35.71;49.57;100476.88;5128788;27;66179;-42
2023/04/28 10:01:40;;;;;;;;;;;;;;;35.70;49.45;100476.06;5122535;27;69754;-44
2023/04/28 10:04:11;;;;;;;;;;;;;;;35.69;49.23;100484.50;5131657;27;65685;-42
2023/04/28 10:06:43;;;;;;;;;;;;;;;35.69;49.30;100489.94;5122301;27;69580;-44
2023/04/28 10:09:15;;;;;;;;;;;;;;;35.68;49.67;100496.50;5105025;27;65807;-42
2023/04/28 10:11:46;;;;;;;;;;;;;;;35.62;50.36;100495.63;5127592;27;70395;-41
2023/04/28 10:14:16;;;;;;;;;;;;;;;35.52;50.81;100500.97;5122757;27;66511;-43
2023/04/28 10:16:50;;;;;;;;;;;;;;;35.53;51.63;100494.47;5103557;27;70232;-39
2023/04/28 10:19:20;;;;;;;;;;;;;;;35.58;51.57;100489.09;5093381;27;66413;-41
2023/04/28 10:22:08;;;;;;;;;;;;;;;35.48;52.25;100500.69;5122778;27;69616;-40
2023/04/28 10:24:58;;;;;;;;;;;;;;;35.46;51.94;100508.31;5118457;27;66274;-41
2023/04/28 10:27:30;;;;;;;;;;;;;;;35.47;51.99;100526.34;5088537;27;69586;-42
2023/04/28 10:30:13;;;;;;;;;;;;;;;35.50;52.15;100525.00;5122503;27;66477;-42
2023/04/28 10:32:47;;;;;;;;;;;;;;;35.50;51.73;100536.72;5127535;27;69825;-42
2023/04/28 10:35:20;;;;;;;;;;;;;;;35.49;51.70;100524.16;5108048;27;67655;-41
2023/04/28 10:38:07;;;;;;;;;;;;;;;35.49;52.03;100535.06;5124631;27;69350;-41
2023/04/28 10:40:43;;;;;;;;;;;;;;;35.50;51.70;100536.72;5126169;27;65404;-41
2023/04/28 10:43:35;;;;;;;;;;;;;;;35.50;51.32;100525.81;5125609;27;70679;-42
2023/04/28 10:46:06;;;;;;;;;;;;;;;35.49;51.39;100529.59;5131434;27;65762;-42
2023/04/28 10:48:45;;;;;;;;;;;;;;;35.48;51.31;100533.41;5111224;27;70549;-41
2023/04/28 10:51:15;;;;;;;;;;;;;;;35.47;52.12;100531.78;5130466;27;66185;-41
2023/04/28 10:53:49;;;;;;;;;;;;;;;35.44;51.89;100542.38;5125852;27;70698;-42
2023/04/28 10:56:26;;;;;;;;;;;;;;;35.43;52.07;100555.19;5131066;27;66526;-42
2023/04/28 10:58:57;;;;;;;;;;;;;;;35.43;51.66;100559.84;5123033;27;69240;-41
2023/04/28 11:01:28;;;;;;;;;;;;;;;35.41;52.28;100576.47;5122535;27;64909;-41
2023/04/28 11:04:01;;;;;;;;;;;;;;;35.40;52.33;100569.34;5119278;27;70838;-41
2023/04/28 11:06:39;;;;;;;;;;;;;;;35.41;52.41;100586.53;5102999;27;65264;-41
2023/04/28 11:09:18;;;;;;;;;;;;;;;35.37;52.36;100583.50;5116543;27;70026;-41
2023/04/28 11:12:04;;;;;;;;;;;;;;;35.35;52.67;100585.66;5121989;27;67011;-43
2023/04/28 11:14:35;;;;;;;;;;;;;;;35.32;52.82;100586.19;5104515;27;70118;-42
2023/04/28 11:17:07;;;;;;;;;;;;;;;35.32;53.34;100586.19;5126561;27;65345;-42
2023/04/28 11:19:38;;;;;;;;;;;;;;;35.29;53.63;100590.25;5132924;27;70119;-42
2023/04/28 11:22:15;;;;;;;;;;;;;;;35.28;53.36;100598.69;5128761;27;65754;-42
2023/04/28 11:24:56;;;;;;;;;;;;;;;35.26;53.65;100598.94;5130841;27;70589;-42
2023/04/28 11:27:27;;;;;;;;;;;;;;;35.25;53.95;100594.56;5133107;27;67219;-41
2023/04/28 11:29:58;;;;;;;;;;;;;;;35.25;54.30;100582.84;5131824;27;70026;-43
2023/04/28 11:32:30;;;;;;;;;;;;;;;35.23;53.94;100583.09;5132306;27;65424;-41
2023/04/28 11:35:00;;;;;;;;;;;;;;;35.21;54.18;100598.88;5109157;27;69424;-42
2023/04/28 11:37:30;;;;;;;;;;;;;;;35.21;54.31;100606.25;5135247;27;65699;-43
2023/04/28 11:40:09;;;;;;;;;;;;;;;35.21;54.49;100614.44;5131360;27;70538;-43
2023/04/28 11:42:49;;;;;;;;;;;;;;;35.19;54.03;100606.53;5134042;27;65864;-42
2023/04/28 11:45:19;;;;;;;;;;;;;;;34.96;54.64;100593.94;5107743;27;70471;-41
2023/04/28 11:47:50;;;;;;;;;;;;;;;35.16;54.80;100617.09;5131508;27;67280;-43
2023/04/28 11:50:37;;;;;;;;;;;;;;;35.16;54.84;100619.81;5114191;27;69294;-42
2023/04/28 11:53:09;;;;;;;;;;;;;;;35.00;56.26;100619.63;5103684;27;65385;-40
2023/04/28 11:55:39;;;;;;;;;;;;;;;34.80;58.18;100620.22;5106498;27;70026;-42
2023/04/28 11:58:23;;;;;;;;;;;;;;;34.67;58.49;100624.13;5086788;27;66035;-44
2023/04/28 12:01:10;;;;;;;;;;;;;;;34.60;59.47;100625.38;5128737;27;70243;-43
2023/04/28 12:03:43;;;;;;;;;;;;;;;34.52;60.46;100629.34;5119240;27;65577;-42
2023/04/28 12:06:20;;;;;;;;;;;;;;;34.47;60.62;100626.56;5127929;27;70089;-42
2023/04/28 12:08:53;;;;;;;;;;;;;;;34.42;61.77;100635.47;5101942;27;66351;-41
2023/04/28 12:11:24;;;;;;;;;;;;;;;34.39;62.47;100641.41;5129471;27;70604;-41
2023/04/28 12:14:06;;;;;;;;;;;;;;;34.28;62.25;100644.25;5122229;27;66183;-42
2023/04/28 12:16:42;;;;;;;;;;;;;;;33.94;58.20;100638.78;5127557;27;69924;-42
2023/04/28 12:19:14;;;;;;;;;;;;;;;33.61;54.05;100637.69;5123212;27;66499;-43
2023/04/28 12:21:57;;;;;;;;;;;;;;;33.32;50.99;100632.22;5124311;27;68918;-43
2023/04/28 12:24:27;;;;;;;;;;;;;;;33.08;48.13;100636.91;5128568;27;66341;-42
2023/04/28 12:27:19;;;;;;;;;;;;;;;32.85;46.11;100629.63;5120381;27;70361;-42
2023/04/28 12:29:50;;;;;;;;;;;;;;;32.60;44.63;100639.97;5127535;27;66837;-42
2023/04/28 12:32:36;;;;;;;;;;;;;;;32.35;43.13;100637.47;5115686;27;70098;-41
2023/04/28 12:35:07;;;;;;;;;;;;;;;32.20;42.23;100632.47;5127575;27;66655;-41
2023/04/28 12:37:40;;;;;;;;;;;;;;;31.96;41.07;100646.03;5119365;27;69894;-41
2023/04/28 12:40:11;;;;;;;;;;;;;;;31.92;42.74;100658.41;5123016;27;65595;-43
2023/04/28 12:42:41;;;;;;;;;;;;;;;31.79;42.32;100655.88;5123170;27;71001;-42
2023/04/28 12:45:12;;;;;;;;;;;;;;;31.73;42.21;100651.38;5116042;27;66020;-41
2023/04/28 12:47:42;;;;;;;;;;;;;;;31.65;41.61;100652.53;5131726;27;70860;-43
2023/04/28 12:50:12;;;;;;;;;;;;;;;31.59;41.64;100656.16;5080125;27;65669;-41
2023/04/28 12:52:43;;;;;;;;;;;;;;;31.53;41.13;100663.31;5127629;27;71281;-42
2023/04/28 12:55:13;;;;;;;;;;;;;;;31.49;41.22;100659.44;5092608;27;66799;-42
2023/04/28 12:57:43;;;;;;;;;;;;;;;31.43;41.67;100673.91;5107180;27;69316;-41
2023/04/28 13:00:15;;;;;;;;;;;;;;;31.37;40.98;100658.53;5084984;27;66677;-41
2023/04/28 13:02:45;;;;;;;;;;;;;;;31.30;40.52;100668.63;5130574;27;69645;-42